Time;durP1;ratioP1;P1;durP2;ratioP2;P2;SDS_P1;SDS_P2;PMS_P1;PMS_P2;Temp;Humidity;BMP_temperature;BMP_pressure;BME280_temperature;BME280_humidity;BME280_pressure;Samples;Min_cycle;Max_cycle;Signal;HPM_P1;HPM_P2
2021/08/15 00:02:19;;;;;;;14.32;10.15;;;23.70;73.90;;;22.92;71.29;96137.53;4941644;28;20050;-70
2021/08/15 00:04:44;;;;;;;18.23;10.20;;;23.60;73.90;;;22.89;70.85;96132.72;4911872;28;20094;-71
2021/08/15 00:07:10;;;;;;;13.40;10.10;;;23.60;73.90;;;22.87;71.11;96128.69;4926523;29;20047;-71
2021/08/15 00:09:36;;;;;;;16.45;9.63;;;23.60;74.10;;;22.83;71.51;96116.84;4922805;28;20029;-71
2021/08/15 00:12:06;;;;;;;13.38;10.25;;;23.60;74.10;;;22.81;72.08;96118.97;4931629;28;20186;-71
2021/08/15 00:14:32;;;;;;;;;;;23.50;74.30;;;22.72;73.29;96118.69;4922495;28;20038;-71
2021/08/15 00:16:58;;;;;;;15.73;10.73;;;23.50;74.60;;;22.67;71.69;96112.53;4935891;28;19922;-71
2021/08/15 00:19:23;;;;;;;13.90;11.25;;;23.40;74.80;;;22.65;71.86;96117.34;4932843;28;20036;-71
2021/08/15 00:21:50;;;;;;;17.42;10.35;;;23.40;74.90;;;22.62;71.78;96111.41;4917427;29;20035;-71
2021/08/15 00:24:15;;;;;;;13.82;11.07;;;23.40;74.80;;;22.61;71.64;96117.03;4921753;29;20040;-71
2021/08/15 00:26:41;;;;;;;14.27;10.70;;;23.30;74.80;;;22.56;72.30;96117.84;4917698;29;20508;-70
2021/08/15 00:29:07;;;;;;;15.45;10.88;;;23.30;74.90;;;22.54;72.24;96122.66;4932442;28;20519;-71
2021/08/15 00:31:33;;;;;;;16.20;11.55;;;23.30;75.00;;;22.53;72.38;96113.00;4928244;29;20466;-71
2021/08/15 00:33:59;;;;;;;14.10;11.32;;;23.30;74.90;;;22.50;72.39;96113.53;4946364;28;20039;-71
2021/08/15 00:36:24;;;;;;;15.77;10.88;;;23.20;75.20;;;22.46;72.43;96114.34;4935702;28;20089;-71
2021/08/15 00:38:50;;;;;;;14.07;10.70;;;23.20;75.40;;;22.42;72.94;96105.22;4922427;29;20086;-72
2021/08/15 00:41:16;;;;;;;14.00;9.95;;;23.10;75.70;;;22.40;73.36;96110.81;4932540;28;20106;-72
2021/08/15 00:43:42;;;;;;;15.80;10.80;;;23.10;75.80;;;22.39;73.57;96117.25;4929732;29;20098;-72
2021/08/15 00:46:11;;;;;;;13.25;11.15;;;23.10;75.90;;;22.36;73.87;96109.75;4929965;28;20043;-72
2021/08/15 00:48:38;;;;;;;20.73;10.73;;;23.10;75.80;;;22.33;73.36;96115.63;4932183;28;20032;-70
2021/08/15 00:51:04;;;;;;;16.13;11.13;;;23.10;76.00;;;22.34;73.84;96117.25;4912147;29;20075;-70
2021/08/15 00:53:36;;;;;;;14.50;10.82;;;23.10;76.40;;;22.34;74.21;96111.88;4933086;28;20094;-71
2021/08/15 00:56:04;;;;;;;13.57;11.23;;;23.10;76.60;;;22.35;74.04;96110.81;4915035;29;20058;-71
2021/08/15 00:58:31;;;;;;;19.70;11.20;;;23.10;76.80;;;22.35;74.02;96115.38;4898007;28;20131;-69
2021/08/15 01:01:01;;;;;;;16.55;11.00;;;23.10;76.80;;;22.36;74.57;96107.06;4916587;29;20035;-71
2021/08/15 01:03:27;;;;;;;12.97;11.13;;;23.10;76.80;;;22.37;74.12;96111.34;4910237;28;20273;-72
2021/08/15 01:05:53;;;;;;;15.38;10.80;;;23.20;76.70;;;22.37;74.68;96107.88;4898327;29;20055;-71
2021/08/15 01:08:19;;;;;;;18.58;10.95;;;23.20;76.70;;;22.36;74.46;96101.69;4902752;29;20036;-71
2021/08/15 01:10:45;;;;;;;16.15;11.40;;;23.20;76.80;;;22.31;74.61;96099.00;4911380;28;20108;-72
2021/08/15 01:13:11;;;;;;;14.00;10.25;;;23.10;76.90;;;22.30;74.81;96086.69;4929681;28;20400;-71
2021/08/15 01:15:38;;;;;;;15.00;10.52;;;23.10;76.80;;;22.31;74.83;96089.09;4919546;29;20106;-71
2021/08/15 01:18:24;;;;;;;13.15;10.13;;;23.10;76.60;;;22.31;75.70;96090.97;4903412;29;20028;-71
2021/08/15 01:21:01;;;;;;;17.42;10.70;;;23.10;76.30;;;22.30;75.89;96081.31;4933919;29;20040;-71
2021/08/15 01:23:27;;;;;;;15.68;10.98;;;23.10;76.60;;;22.26;74.83;96080.25;4920105;29;20361;-70
2021/08/15 01:25:53;;;;;;;14.15;11.02;;;23.10;76.80;;;22.24;74.98;96093.09;4917230;29;20032;-71
2021/08/15 01:28:19;;;;;;;18.95;10.88;;;23.10;76.70;;;22.22;75.17;96079.16;4919914;29;20048;-71
2021/08/15 01:30:46;;;;;;;16.95;10.95;;;23.10;76.60;;;22.19;75.02;96077.81;4942654;28;20118;-71
2021/08/15 01:33:12;;;;;;;15.85;11.07;;;23.00;76.70;;;22.15;75.10;96079.38;4925649;28;20500;-72
2021/08/15 01:35:37;;;;;;;16.15;11.00;;;22.90;76.90;;;22.10;74.72;96075.88;4932923;28;20055;-71
2021/08/15 01:38:03;;;;;;;13.80;11.05;;;22.90;76.70;;;22.09;74.80;96075.09;4930698;28;20060;-71
2021/08/15 01:40:29;;;;;;;17.73;11.27;;;22.90;76.70;;;22.08;74.49;96076.16;4942761;28;20039;-71
2021/08/15 01:42:55;;;;;;;16.63;11.65;;;22.90;76.70;;;22.07;75.25;96076.41;4949505;28;20034;-70
2021/08/15 01:45:20;;;;;;;18.42;11.70;;;22.90;76.80;;;22.04;75.31;96068.88;4933292;28;20106;-71
2021/08/15 01:47:46;;;;;;;13.77;10.93;;;22.90;76.80;;;22.01;75.38;96079.06;4931895;28;20091;-70
2021/08/15 01:50:12;;;;;;;15.38;11.00;;;22.80;77.10;;;21.97;75.43;96069.94;4934080;29;20087;-71
2021/08/15 01:52:38;;;;;;;15.10;10.85;;;22.70;77.60;;;21.92;75.72;96064.53;4930530;29;20119;-71
2021/08/15 01:55:06;;;;;;;18.83;12.02;;;22.70;77.60;;;21.89;76.10;96073.09;4935782;28;20035;-72
2021/08/15 01:57:32;;;;;;;15.63;11.25;;;22.60;77.80;;;21.86;75.95;96075.47;4923607;28;20038;-71
2021/08/15 01:59:58;;;;;;;14.88;11.50;;;22.60;77.90;;;21.82;75.81;96074.41;4921700;29;20044;-71
2021/08/15 02:02:23;;;;;;;14.60;10.88;;;22.60;77.90;;;21.76;75.58;96070.91;4900828;29;20039;-72
2021/08/15 02:04:49;;;;;;;15.23;10.60;;;22.60;78.10;;;21.71;76.31;96068.97;4908532;28;20098;-71
2021/08/15 02:07:15;;;;;;;13.93;10.63;;;22.50;78.30;;;21.68;75.99;96074.06;4920817;29;20044;-71
2021/08/15 02:09:40;;;;;;;13.98;11.50;;;22.50;78.40;;;21.64;76.46;96067.59;4930866;29;20067;-71
2021/08/15 02:12:06;;;;;;;15.23;11.35;;;22.40;78.70;;;21.60;77.04;96075.34;4937266;28;20098;-71
2021/08/15 02:14:32;;;;;;;17.40;12.35;;;22.40;78.70;;;21.56;76.85;96070.78;4935046;28;20131;-70
2021/08/15 02:16:58;;;;;;;13.60;11.65;;;22.40;78.70;;;21.52;76.52;96069.69;4944202;28;20031;-70
2021/08/15 02:19:23;;;;;;;17.85;11.27;;;22.40;78.80;;;21.50;76.65;96079.81;4936743;28;20036;-70
2021/08/15 02:21:49;;;;;;;19.85;11.93;;;22.30;78.90;;;21.46;77.00;96082.22;4918342;28;20492;-71
2021/08/15 02:24:15;;;;;;;16.35;11.98;;;22.30;79.00;;;21.43;77.21;96082.72;4952667;28;20038;-71
2021/08/15 02:26:41;;;;;;;21.15;12.18;;;22.20;79.30;;;21.36;76.89;96088.31;4918551;28;20068;-70
2021/08/15 02:29:07;;;;;;;17.45;12.98;;;22.10;79.50;;;21.33;77.43;96086.16;4936908;28;20065;-72
2021/08/15 02:31:33;;;;;;;13.68;12.25;;;22.10;79.60;;;21.30;77.48;96081.31;4918511;29;20107;-70
2021/08/15 02:33:59;;;;;;;19.17;11.88;;;22.10;79.70;;;21.26;78.37;96082.88;4933173;29;20468;-71
2021/08/15 02:36:24;;;;;;;16.48;12.02;;;22.10;79.70;;;21.21;77.79;96079.34;4915485;29;20513;-71
2021/08/15 02:38:50;;;;;;;15.43;11.35;;;22.00;79.80;;;21.19;77.99;96076.91;4921356;29;20080;-71
2021/08/15 02:41:16;;;;;;;15.15;11.77;;;22.10;79.80;;;21.17;77.79;96079.03;4926314;29;20404;-71
2021/08/15 02:43:42;;;;;;;13.60;11.15;;;22.00;79.80;;;21.14;77.49;96071.53;4933698;29;21412;-71
2021/08/15 02:46:07;;;;;;;15.88;11.20;;;22.00;79.90;;;21.15;78.22;96065.13;4915376;29;20539;-71
2021/08/15 02:48:33;;;;;;;15.82;12.18;;;22.00;79.80;;;21.14;78.07;96068.84;4914197;28;20123;-71
2021/08/15 02:50:59;;;;;;;15.55;12.20;;;22.00;79.70;;;21.15;78.66;96070.47;4931447;28;20065;-71
2021/08/15 02:53:25;;;;;;;16.75;11.70;;;22.10;79.70;;;21.16;78.43;96061.38;4940504;28;20519;-70
2021/08/15 02:55:50;;;;;;;17.33;12.80;;;22.10;79.50;;;21.15;78.52;96058.97;4913791;29;20068;-70
2021/08/15 02:58:16;;;;;;;16.10;12.40;;;22.10;79.60;;;21.15;78.21;96067.78;4947994;28;20160;-70
2021/08/15 03:00:42;;;;;;;16.02;12.48;;;22.00;79.60;;;21.13;79.01;96064.56;4917722;28;20098;-70
2021/08/15 03:03:08;;;;;;;16.63;12.68;;;22.00;79.60;;;21.14;78.48;96062.69;4937983;28;20035;-71
2021/08/15 03:05:33;;;;;;;17.15;13.38;;;22.10;79.60;;;21.11;78.55;96066.69;4895974;29;20095;-70
2021/08/15 03:07:59;;;;;;;18.05;13.30;;;22.00;79.60;;;21.12;78.28;96064.84;4934738;28;20044;-70
2021/08/15 03:10:25;;;;;;;17.63;13.82;;;22.00;79.60;;;21.10;78.26;96060.53;4938969;28;20059;-66
2021/08/15 03:12:51;;;;;;;17.75;13.65;;;21.90;79.80;;;21.10;78.70;96067.75;4897125;29;20043;-70
2021/08/15 03:15:16;;;;;;;17.63;13.80;;;22.00;79.80;;;21.09;78.83;96064.28;4919914;29;20143;-71
2021/08/15 03:17:42;;;;;;;18.75;13.63;;;22.00;79.70;;;21.07;78.93;96068.28;4906511;28;20058;-70
2021/08/15 03:20:09;;;;;;;22.27;13.32;;;21.90;79.70;;;21.05;78.65;96063.19;4928444;29;20138;-70
2021/08/15 03:22:34;;;;;;;17.35;14.35;;;22.00;79.60;;;21.06;78.61;96053.28;4920644;28;20032;-70
2021/08/15 03:25:00;;;;;;;22.58;13.88;;;22.00;79.40;;;21.05;78.58;96059.72;4910852;29;20441;-70
2021/08/15 03:27:26;;;;;;;15.65;13.13;;;21.90;79.50;;;21.03;78.65;96056.47;4931557;29;20465;-70
2021/08/15 03:29:52;;;;;;;16.52;13.25;;;21.90;79.50;;;21.04;78.57;96055.38;4946106;28;20050;-70
2021/08/15 03:32:17;;;;;;;17.17;13.68;;;21.90;79.50;;;21.02;79.14;96049.50;4931085;28;20040;-71
2021/08/15 03:34:43;;;;;;;15.80;13.60;;;21.90;79.50;;;21.01;78.11;96054.03;4938938;28;20087;-70
2021/08/15 03:37:09;;;;;;;17.58;13.52;;;21.90;79.60;;;21.01;78.26;96055.91;4939731;28;20039;-71
2021/08/15 03:39:34;;;;;;;19.02;14.13;;;21.80;79.80;;;20.97;78.70;96044.91;4905952;29;20039;-71
2021/08/15 03:42:00;;;;;;;14.75;13.07;;;21.90;79.80;;;20.97;79.25;96052.94;4924415;28;20201;-70
2021/08/15 03:44:30;;;;;;;16.27;13.50;;;21.90;79.80;;;20.98;79.12;96045.72;4913077;28;20071;-69
2021/08/15 03:46:56;;;;;;;16.95;15.10;;;21.80;79.70;;;20.95;78.54;96044.38;4933915;28;20055;-70
2021/08/15 03:49:21;;;;;;;18.23;14.93;;;21.80;79.70;;;20.95;79.47;96046.25;4930419;28;20042;-70
2021/08/15 03:51:47;;;;;;;18.90;14.80;;;21.80;79.80;;;20.92;78.94;96044.09;4937718;28;20031;-71
2021/08/15 03:54:17;;;;;;;22.60;14.38;;;21.80;80.00;;;20.90;79.49;96046.22;4907701;29;20523;-70
2021/08/15 03:56:43;;;;;;;18.55;14.27;;;21.80;80.00;;;20.87;78.99;96047.53;4941640;28;20074;-70
2021/08/15 03:59:09;;;;;;;18.00;14.85;;;21.80;80.10;;;20.87;79.12;96046.72;4917119;29;20111;-70
2021/08/15 04:01:34;;;;;;;19.52;15.40;;;21.80;80.10;;;20.87;79.84;96054.75;4912375;28;20071;-71
2021/08/15 04:04:00;;;;;;;20.05;15.18;;;21.80;80.20;;;20.85;79.10;96049.66;4935152;29;20040;-71
2021/08/15 04:06:27;;;;;;;26.70;14.93;;;21.70;80.30;;;20.83;79.51;96056.31;4919439;28;20409;-69
2021/08/15 04:08:53;;;;;;;18.15;13.88;;;21.70;80.30;;;20.80;80.06;96052.25;4919663;29;20066;-71
2021/08/15 04:11:19;;;;;;;16.67;13.82;;;21.70;80.30;;;20.77;79.44;96058.13;4920908;29;20059;-71
2021/08/15 04:13:45;;;;;;;19.10;14.35;;;21.60;80.40;;;20.76;79.92;96056.50;4931550;28;20046;-71
2021/08/15 04:16:11;;;;;;;17.77;13.90;;;21.70;80.40;;;20.72;80.14;96056.22;4918513;29;20031;-71
2021/08/15 04:18:36;;;;;;;18.42;14.70;;;21.60;80.50;;;20.72;79.58;96061.56;4901685;28;20411;-72
2021/08/15 04:21:02;;;;;;;17.73;13.85;;;21.70;80.40;;;20.71;80.57;96054.59;4933388;29;20140;-70
2021/08/15 04:23:30;;;;;;;17.70;14.55;;;21.60;80.40;;;20.71;79.93;96054.59;4916318;29;20041;-71
2021/08/15 04:25:55;;;;;;;16.75;14.68;;;21.60;80.50;;;20.68;79.98;96060.47;4902655;29;20050;-71
2021/08/15 04:28:23;;;;;;;17.35;15.23;;;21.60;80.80;;;20.68;79.79;96059.66;4916681;29;20514;-71
2021/08/15 04:30:48;;;;;;;17.20;15.40;;;21.60;80.80;;;20.67;80.11;96053.50;4934474;28;20484;-70
2021/08/15 04:33:18;;;;;;;17.67;14.98;;;21.60;81.00;;;20.68;79.95;96057.78;4930570;28;20119;-71
2021/08/15 04:35:44;;;;;;;19.67;15.40;;;21.60;80.90;;;20.66;80.93;96057.22;4927341;28;20043;-71
2021/08/15 04:38:10;;;;;;;17.15;15.35;;;21.60;81.00;;;20.66;80.33;96061.78;4913427;29;20419;-71
2021/08/15 04:40:35;;;;;;;20.35;15.27;;;21.60;81.00;;;20.63;80.15;96057.75;4921015;28;20040;-72
2021/08/15 04:43:01;;;;;;;20.15;15.10;;;21.60;80.90;;;20.63;81.39;96057.75;4939650;28;20125;-71
2021/08/15 04:45:27;;;;;;;18.10;14.73;;;21.60;80.90;;;20.64;80.53;96059.34;4892961;29;20155;-71
2021/08/15 04:47:52;;;;;;;18.50;15.48;;;21.70;81.00;;;20.65;81.42;96065.50;4917075;29;20079;-70
2021/08/15 04:50:18;;;;;;;21.17;15.60;;;21.70;81.00;;;20.64;80.89;96056.69;4933338;28;20134;-73
2021/08/15 04:52:44;;;;;;;17.90;14.40;;;21.70;81.00;;;20.64;81.16;96070.03;4935559;28;20408;-71
2021/08/15 04:55:10;;;;;;;18.80;14.60;;;21.60;81.10;;;20.65;80.80;96060.97;4932083;29;20122;-71
2021/08/15 04:57:36;;;;;;;19.38;14.77;;;21.70;80.90;;;20.66;81.09;96061.78;4943680;28;20043;-70
2021/08/15 05:00:03;;;;;;;20.10;15.32;;;21.70;80.90;;;20.65;81.55;96062.84;4936741;28;20063;-70
2021/08/15 05:02:29;;;;;;;22.30;15.00;;;21.70;80.80;;;20.66;80.84;96067.94;4904803;29;20040;-69
2021/08/15 05:04:55;;;;;;;18.58;14.10;;;21.70;80.80;;;20.65;81.21;96070.84;4896659;29;20120;-70
2021/08/15 05:07:20;;;;;;;21.25;15.07;;;21.70;80.80;;;20.67;81.40;96069.53;4900206;29;20054;-70
2021/08/15 05:09:46;;;;;;;18.15;14.25;;;21.70;80.80;;;20.69;80.74;96072.75;4904827;29;20172;-71
2021/08/15 05:12:12;;;;;;;19.50;14.65;;;21.80;80.80;;;20.67;80.77;96064.19;4925985;29;20086;-68
2021/08/15 05:14:37;;;;;;;18.92;14.80;;;21.70;80.80;;;20.71;80.76;96069.84;4926372;29;20036;-70
2021/08/15 05:17:03;;;;;;;19.38;14.18;;;21.80;80.70;;;20.71;81.02;96070.63;4930664;28;20087;-70
2021/08/15 05:19:31;;;;;;;25.67;22.92;;;21.80;80.70;;;20.71;81.23;96070.63;4936888;29;20043;-70
2021/08/15 05:21:56;;;;;;;21.02;15.77;;;21.80;80.40;;;20.73;80.96;96073.84;4933026;29;20043;-69
2021/08/15 05:24:22;;;;;;;17.65;13.98;;;21.90;80.10;;;20.77;81.37;96074.16;4946955;28;20079;-70
2021/08/15 05:26:48;;;;;;;18.17;14.50;;;21.90;80.10;;;20.80;80.90;96069.09;4941774;28;20035;-70
2021/08/15 05:29:14;;;;;;;17.67;13.63;;;22.00;80.10;;;20.81;80.78;96072.59;4925950;29;20130;-72
2021/08/15 05:31:39;;;;;;;16.17;13.45;;;21.90;79.90;;;20.84;80.80;96073.97;4949982;28;20046;-71
2021/08/15 05:34:05;;;;;;;15.68;13.90;;;22.00;79.80;;;20.86;80.69;96077.19;4945781;28;20074;-71
2021/08/15 05:36:31;;;;;;;20.63;13.73;;;22.00;79.70;;;20.89;80.88;96071.34;4939340;28;20032;-70
2021/08/15 05:38:57;;;;;;;15.63;12.88;;;22.10;79.70;;;20.93;80.75;96080.44;4895740;29;20444;-69
2021/08/15 05:41:22;;;;;;;16.77;13.00;;;22.10;79.30;;;20.97;79.81;96074.34;4911981;29;20051;-70
2021/08/15 05:43:48;;;;;;;17.27;12.88;;;22.10;78.40;;;21.04;79.53;96074.13;4930964;29;20036;-69
2021/08/15 05:46:14;;;;;;;19.50;15.00;;;22.30;78.00;;;21.08;79.54;96069.91;4933230;28;20059;-70
2021/08/15 05:48:40;;;;;;;19.67;15.05;;;22.40;77.80;;;21.15;79.41;96075.81;4914933;28;20073;-73
2021/08/15 05:51:07;;;;;;;17.13;14.25;;;22.50;77.60;;;21.23;78.96;96077.22;4945090;28;20031;-70
2021/08/15 05:53:32;;;;;;;18.73;13.07;;;22.60;77.10;;;21.30;79.20;96075.97;4937045;28;20043;-70
2021/08/15 05:55:58;;;;;;;19.52;12.98;;;22.70;76.80;;;21.39;79.20;96073.63;4934756;29;20183;-73
2021/08/15 05:58:25;;;;;;;37.17;30.67;;;22.80;76.30;;;21.48;79.14;96079.28;4937645;29;20047;-73
2021/08/15 06:00:51;;;;;;;21.23;13.95;;;22.90;76.20;;;21.59;78.82;96075.63;4927604;29;20408;-72
2021/08/15 06:03:17;;;;;;;15.50;12.18;;;23.10;75.60;;;21.71;78.33;96073.53;4948224;28;20099;-71
2021/08/15 06:05:42;;;;;;;13.30;11.52;;;23.30;75.40;;;21.83;78.21;96076.81;4934482;29;20027;-73
2021/08/15 06:08:08;;;;;;;14.40;11.70;;;23.40;75.30;;;21.93;77.88;96071.50;4940654;29;20079;-72
2021/08/15 06:10:34;;;;;;;18.00;12.00;;;23.50;74.70;;;22.07;77.52;96071.06;4929746;28;20055;-72
2021/08/15 06:13:00;;;;;;;15.20;11.15;;;23.70;74.10;;;22.17;77.26;96071.88;4918972;29;20035;-72
2021/08/15 06:15:25;;;;;;;14.60;10.70;;;23.80;73.70;;;22.29;76.80;96067.13;4930265;29;20036;-73
2021/08/15 06:17:51;;;;;;;14.02;11.63;;;24.00;72.80;;;22.40;76.29;96065.25;4907135;29;20071;-73
2021/08/15 06:20:17;;;;;;;13.15;11.57;;;24.10;72.20;;;22.51;76.18;96072.28;4916176;29;20032;-73
2021/08/15 06:22:44;;;;;;;14.85;10.73;;;24.20;72.40;;;22.62;75.50;96068.53;4931832;29;20039;-73
2021/08/15 06:25:15;;;;;;;15.68;11.98;;;24.30;71.20;;;22.74;74.31;96078.22;4935326;28;20042;-73
2021/08/15 06:27:44;;;;;;;16.77;12.60;;;24.40;70.20;;;22.83;74.49;96068.56;4936864;29;20036;-72
2021/08/15 06:30:15;;;;;;;16.85;11.60;;;24.50;70.10;;;22.92;73.76;96075.84;4928108;29;20039;-73
2021/08/15 06:32:47;;;;;;;17.52;11.82;;;24.60;69.80;;;23.02;73.01;96075.03;4937265;28;20027;-72
2021/08/15 06:35:18;;;;;;;13.30;10.45;;;24.70;69.70;;;23.11;73.38;96069.94;4956197;28;20055;-72
2021/08/15 06:37:45;;;;;;;12.55;11.05;;;24.70;69.70;;;23.20;72.73;96069.13;4939775;29;20130;-73
2021/08/15 06:40:11;;;;;;;13.00;10.10;;;24.80;69.10;;;23.32;72.98;96065.38;4947561;28;20036;-73
2021/08/15 06:42:37;;;;;;;13.00;10.57;;;25.00;68.60;;;23.41;72.57;96067.25;4936733;28;20035;-73
2021/08/15 06:45:04;;;;;;;11.93;9.82;;;25.10;68.00;;;23.52;72.35;96070.69;4937488;29;20055;-73
2021/08/15 06:47:29;;;;;;;19.27;9.52;;;25.30;68.00;;;23.62;72.38;96070.72;4937144;28;20172;-73
2021/08/15 06:49:55;;;;;;;12.85;9.30;;;25.30;67.80;;;23.73;71.37;96066.91;4950539;28;20173;-73
2021/08/15 06:52:21;;;;;;;16.15;9.68;;;25.50;66.90;;;23.84;71.57;96065.03;4933665;29;20139;-73
2021/08/15 06:54:47;;;;;;;14.00;10.63;;;25.60;66.90;;;23.95;71.05;96065.78;4932975;28;20122;-73
2021/08/15 06:57:14;;;;;;;12.88;9.57;;;25.70;67.10;;;24.05;71.57;96057.69;4917982;29;20106;-73
2021/08/15 06:59:39;;;;;;;12.13;9.10;;;25.80;66.30;;;24.14;70.41;96066.78;4947653;28;20056;-72
2021/08/15 07:02:05;;;;;;;12.05;9.23;;;25.90;65.80;;;24.26;70.31;96064.59;4910936;28;20613;-73
2021/08/15 07:04:31;;;;;;;18.75;16.08;;;26.10;65.90;;;24.39;69.95;96068.56;4898356;29;20028;-73
2021/08/15 07:06:57;;;;;;;30.73;23.77;;;26.20;63.90;;;24.52;69.55;96069.84;4905224;29;20503;-72
2021/08/15 07:09:22;;;;;;;27.42;21.90;;;26.30;62.10;;;24.64;69.20;96065.72;4936236;28;20585;-73
2021/08/15 07:11:48;;;;;;;20.77;16.83;;;26.50;60.80;;;24.77;68.21;96064.31;4944336;28;20152;-73
2021/08/15 07:14:14;;;;;;;11.38;8.52;;;26.60;60.10;;;24.87;66.30;96058.84;4933199;29;20054;-73
2021/08/15 07:16:39;;;;;;;16.63;13.50;;;26.70;58.90;;;24.99;66.07;96050.47;4910284;28;20520;-72
2021/08/15 07:19:06;;;;;;;14.70;11.38;;;26.90;59.40;;;25.14;67.33;96052.22;4932900;29;20411;-73
2021/08/15 07:21:32;;;;;;;10.50;9.15;;;27.10;60.40;;;25.29;66.47;96044.00;4930167;29;20032;-73
2021/08/15 07:23:58;;;;;;;13.07;7.38;;;27.30;59.30;;;25.43;65.46;96044.97;4914285;29;20071;-72
2021/08/15 07:26:23;;;;;;;10.57;7.43;;;27.50;58.50;;;25.58;64.90;96052.88;4897865;29;20149;-73
2021/08/15 07:28:49;;;;;;;12.43;7.85;;;27.70;56.80;;;25.75;65.51;96044.38;4929094;29;20123;-73
2021/08/15 07:31:15;;;;;;;7.65;6.85;;;27.90;58.60;;;25.94;65.03;96049.81;4920933;29;20055;-73
2021/08/15 07:33:40;;;;;;;10.68;6.75;;;28.10;57.40;;;26.10;63.12;96047.75;4932983;29;20114;-73
2021/08/15 07:36:06;;;;;;;9.65;6.93;;;28.30;54.70;;;26.29;62.57;96055.88;4919010;28;20073;-72
2021/08/15 07:38:33;;;;;;;9.32;6.40;;;28.60;52.90;;;26.45;61.89;96049.19;4953660;28;20093;-71
2021/08/15 07:40:59;;;;;;;7.35;6.30;;;28.70;53.70;;;26.62;61.03;96051.38;4935253;28;20038;-73
2021/08/15 07:43:25;;;;;;;9.27;6.85;;;28.90;52.60;;;26.83;61.29;96045.41;4917836;29;20032;-74
2021/08/15 07:45:51;;;;;;;7.32;6.55;;;29.20;52.40;;;27.04;61.02;96050.50;4917676;29;20087;-72
2021/08/15 07:48:17;;;;;;;9.90;6.65;;;29.40;52.80;;;27.23;60.61;96048.56;4930147;29;20088;-73
2021/08/15 07:50:43;;;;;;;9.70;6.28;;;29.60;52.80;;;27.38;59.28;96051.00;4897826;29;20135;-73
2021/08/15 07:53:25;;;;;;;10.90;7.03;;;29.70;50.50;;;27.60;55.31;96049.53;4948385;28;20043;-73
2021/08/15 07:55:53;;;;;;;9.82;6.47;;;30.00;49.30;;;27.69;57.74;96050.50;4951266;28;20098;-72
2021/08/15 07:58:19;;;;;;;18.17;6.30;;;30.10;48.60;;;27.88;58.24;96047.72;4935818;28;20515;-73
2021/08/15 08:00:45;;;;;;;8.20;6.40;;;30.40;49.10;;;28.04;57.04;96047.06;4950501;28;20042;-73
2021/08/15 08:03:11;;;;;;;9.10;6.50;;;30.50;47.70;;;28.22;56.91;96047.28;4918511;29;20536;-73
2021/08/15 08:05:37;;;;;;;11.13;6.68;;;30.60;47.60;;;28.40;55.57;96049.09;4916321;29;20047;-74
2021/08/15 08:08:03;;;;;;;12.98;7.40;;;30.80;47.10;;;28.55;55.58;96051.47;4932255;29;20501;-73
2021/08/15 08:10:28;;;;;;;9.98;6.90;;;31.00;46.50;;;28.71;54.81;96051.09;4915765;28;20040;-74
2021/08/15 08:12:54;;;;;;;11.25;6.57;;;31.20;46.30;;;28.88;54.26;96043.16;4945918;28;20118;-74
2021/08/15 08:15:20;;;;;;;8.77;6.50;;;31.40;46.60;;;29.05;54.36;96048.72;4936234;28;20035;-74
2021/08/15 08:17:46;;;;;;;8.95;6.30;;;31.60;45.50;;;29.22;53.92;96040.72;4929650;29;20456;-73
2021/08/15 08:20:12;;;;;;;9.90;6.22;;;31.80;45.60;;;29.35;53.43;96040.91;4926319;29;20067;-73
2021/08/15 08:22:38;;;;;;;9.40;6.45;;;32.00;44.90;;;29.55;53.92;96029.59;4927462;29;20135;-74
2021/08/15 08:25:05;;;;;;;8.98;6.80;;;32.20;44.90;;;29.77;53.42;96028.72;4898787;29;20103;-72
2021/08/15 08:27:30;;;;;;;13.15;11.02;;;32.40;44.50;;;29.89;52.71;96028.94;4929288;28;20055;-72
2021/08/15 08:29:56;;;;;;;10.30;8.77;;;32.60;42.60;;;30.04;51.40;96028.53;4914142;29;20032;-72
2021/08/15 08:32:22;;;;;;;8.93;6.13;;;32.70;41.30;;;30.22;51.23;96025.84;4928846;29;20023;-73
2021/08/15 08:34:48;;;;;;;7.60;5.80;;;32.90;42.40;;;30.38;50.58;96024.31;4935568;28;20850;-72
2021/08/15 08:37:13;;;;;;;8.25;5.28;;;33.10;39.90;;;30.57;49.84;96016.66;4918019;28;20092;-71
2021/08/15 08:39:39;;;;;;;6.93;5.55;;;33.40;40.80;;;30.74;49.63;96011.25;4940351;28;20043;-71
2021/08/15 08:42:06;;;;;;;11.73;6.28;;;33.60;41.30;;;30.91;49.37;96015.06;4943310;29;20444;-68
2021/08/15 08:44:34;;;;;;;6.68;5.35;;;33.80;39.90;;;31.11;48.40;96008.97;4920847;28;20094;-69
2021/08/15 08:47:05;;;;;;;12.55;6.63;;;34.10;40.20;;;31.24;45.29;96005.31;4922123;28;20047;-72
2021/08/15 08:49:33;;;;;;;6.07;5.15;;;34.10;38.30;;;31.41;46.48;96006.38;4925636;29;20114;-69
2021/08/15 08:51:59;;;;;;;8.82;5.60;;;34.30;38.40;;;31.53;47.39;95999.16;4932992;29;20047;-70
2021/08/15 08:54:25;;;;;;;9.43;5.88;;;34.50;38.50;;;31.71;46.81;96004.53;4915585;29;20127;-70
2021/08/15 08:56:51;;;;;;;10.02;5.93;;;34.60;37.60;;;31.90;45.99;96002.19;4893212;29;20509;-70
2021/08/15 08:59:17;;;;;;;9.85;5.85;;;34.90;37.50;;;32.12;45.82;95998.41;4900111;29;20052;-70
2021/08/15 09:01:43;;;;;;;10.75;6.10;;;35.20;38.10;;;32.29;45.35;96004.56;4904071;28;20029;-70
2021/08/15 09:04:10;;;;;;;10.30;5.60;;;35.40;36.20;;;32.53;46.02;96003.13;4925925;28;20070;-69
2021/08/15 09:06:38;;;;;;;8.85;5.72;;;35.70;37.40;;;32.71;44.19;96004.59;4913206;29;20040;-67
2021/08/15 09:09:18;;;;;;;7.97;5.88;;;35.70;36.90;;;32.89;42.68;95995.16;4933719;29;20136;-66
2021/08/15 09:11:46;;;;;;;11.43;6.13;;;36.00;36.10;;;33.05;44.44;95997.28;4917502;28;20047;-67
2021/08/15 09:14:18;;;;;;;10.70;5.53;;;36.10;37.20;;;33.22;42.17;95997.09;4928349;29;20411;-71
2021/08/15 09:17:04;;;;;;;10.55;6.03;;;36.30;35.60;;;33.43;40.79;95992.41;4920055;28;20531;-71
2021/08/15 09:19:40;;;;;;;7.30;5.78;;;36.50;35.30;;;33.58;40.57;95982.78;4941138;29;20046;-71
2021/08/15 09:22:16;;;;;;;10.70;8.02;;;36.60;34.80;;;33.77;39.90;95974.03;4950066;28;20039;-72
2021/08/15 09:25:00;;;;;;;16.30;13.25;;;36.90;34.30;;;33.96;39.62;95979.75;4937484;28;20527;-70
2021/08/15 09:27:30;;;;;;;22.85;18.40;;;37.00;33.80;;;34.15;40.49;95978.34;4935827;28;20432;-68
2021/08/15 09:30:17;;;;;;;10.32;6.43;;;37.20;34.30;;;34.32;38.76;95984.34;4936454;28;20039;-72
2021/08/15 09:32:52;;;;;;;8.13;6.82;;;37.40;32.60;;;34.47;39.64;95982.09;4921957;28;20047;-72
2021/08/15 09:35:28;;;;;;;11.35;5.82;;;37.50;34.00;;;34.69;38.18;95982.38;4925119;29;20092;-71
2021/08/15 09:38:08;;;;;;;12.32;5.53;;;37.80;32.60;;;34.84;37.87;95980.84;4923349;29;20127;-69
2021/08/15 09:40:43;;;;;;;6.60;4.88;;;38.00;31.60;;;35.01;37.32;95971.53;4926194;28;20404;-69
2021/08/15 09:43:24;;;;;;;11.20;6.13;;;38.20;31.90;;;35.18;37.25;95971.22;4933613;28;20051;-71
2021/08/15 09:45:57;;;;;;;8.80;5.53;;;38.50;31.70;;;35.38;36.25;95963.19;4932606;28;20051;-71
2021/08/15 09:48:42;;;;;;;8.48;5.30;;;38.70;30.90;;;35.56;36.71;95964.44;4926570;29;20064;-71
2021/08/15 09:51:22;;;;;;;8.65;5.57;;;38.90;31.00;;;35.74;35.81;95976.56;4914784;28;20038;-71
2021/08/15 09:53:57;;;;;;;12.50;8.68;;;39.20;30.60;;;35.86;35.82;95973.78;4949588;28;20122;-71
2021/08/15 09:56:37;;;;;;;9.10;7.32;;;39.20;29.60;;;36.03;35.72;95971.84;4954367;28;20491;-71
2021/08/15 09:59:13;;;;;;;8.80;7.10;;;39.50;30.50;;;36.15;34.45;95968.97;4938282;29;20059;-71
2021/08/15 10:01:43;;;;;;;10.23;6.57;;;39.60;29.20;;;36.29;34.98;95974.78;4941305;29;20411;-71
2021/08/15 10:04:10;;;;;;;11.85;9.10;;;40.00;29.10;;;36.50;35.87;95975.28;4923167;29;20054;-72
2021/08/15 10:06:37;;;;;;;7.18;6.13;;;40.40;29.00;;;36.70;35.54;95969.81;4933547;28;20098;-71
2021/08/15 10:09:06;;;;;;;8.32;6.13;;;40.50;28.90;;;36.85;34.60;95962.66;4925091;29;20182;-70
2021/08/15 10:11:32;;;;;;;8.00;5.38;;;41.10;28.80;;;36.98;35.93;95945.72;4916069;29;20429;-69